Time;durP1;ratioP1;P1;durP2;ratioP2;P2;SDS_P1;SDS_P2;PMS_P1;PMS_P2;Temp;Humidity;BMP_temperature;BMP_pressure;BME280_temperature;BME280_humidity;BME280_pressure;Samples;Min_cycle;Max_cycle;Signal;HPM_P1;HPM_P2
2023/04/16 00:02:26;;;;;;;3.95;2.42;;;;;;;8.89;97.44;97668.38;5739392;24;20043;-91
2023/04/16 00:05:18;;;;;;;5.68;2.40;;;;;;;9.00;96.73;97694.44;5756271;24;20095;-92
2023/04/16 00:29:34;;;;;;;;;;;;;;;;;;;;;
2023/04/16 00:32:43;;;;;;;4.57;2.25;;;;;;;8.67;99.03;97667.41;5768688;24;20016;-93
2023/04/16 00:41:39;;;;;;;5.57;2.35;;;;;;;8.67;99.66;97667.41;5749699;25;20024;-93
2023/04/16 00:44:34;;;;;;;4.28;2.10;;;;;;;8.83;98.52;97682.69;5714088;25;20017;-94
2023/04/16 00:58:50;;;;;;;;;;;;;;;;;;;;;
2023/04/16 01:09:56;;;;;;;5.40;1.90;;;;;;;9.20;96.75;97709.63;5701345;25;20025;-93
2023/04/16 01:13:01;;;;;;;7.15;2.20;;;;;;;9.05;96.50;97680.09;5764320;24;20028;-95
2023/04/16 01:16:00;;;;;;;5.57;2.20;;;;;;;9.00;95.11;97673.22;5758875;24;20024;-96
2023/04/16 01:22:08;;;;;;;2.63;1.77;;;;;;;9.20;95.93;97710.47;5757939;24;20026;-93
2023/04/16 01:24:58;;;;;;;4.25;2.00;;;;;;;8.98;98.02;97683.91;5820045;24;20088;-94
2023/04/16 01:27:25;;;;;;;3.80;2.10;;;;;;;9.07;98.29;97711.88;5809730;24;20030;-92
2023/04/16 01:30:12;;;;;;;;;;;;;;;;;;;;;
2023/04/16 01:33:10;;;;;;;3.92;2.00;;;;;;;8.73;100.00;97673.34;5821318;24;20359;-94
2023/04/16 01:38:35;;;;;;;4.65;2.25;;;;;;;8.81;100.00;97704.88;5882203;24;20044;-93
2023/04/16 01:39:04;;;;;;;;;;;;;;;;;;;;;
2023/04/16 01:42:12;;;;;;;5.63;2.05;;;;;;;8.62;99.65;97660.50;5794683;24;20090;-95
2023/04/16 01:45:10;;;;;;;4.78;1.83;;;;;;;8.94;100.00;97702.66;5778627;24;20019;-96
2023/04/16 01:51:26;;;;;;;2.42;1.83;;;;;;;8.81;98.91;97673.94;5859750;24;20085;-94
2023/04/16 01:54:37;;;;;;;2.53;1.63;;;;;;;9.08;97.41;97702.13;5859944;24;20022;-93
2023/04/16 01:57:47;;;;;;;5.68;1.95;;;;;;;9.01;98.52;97705.00;5960089;24;20104;-94
2023/04/16 02:00:36;;;;;;;5.18;1.95;;;;;;;8.94;99.52;97702.66;6019972;23;20051;-93
2023/04/16 02:03:06;;;;;;;3.95;1.98;;;;;;;8.69;100.00;97670.88;6001270;23;20031;-94
2023/04/16 02:06:00;;;;;;;3.00;1.90;;;;;;;8.68;100.00;97677.13;6001045;23;20027;-93
2023/04/16 02:08:45;;;;;;;3.95;1.80;;;;;;;8.62;100.00;97663.16;6001822;23;20110;-93
2023/04/16 02:11:51;;;;;;;3.33;1.60;;;;;;;8.61;100.00;97671.19;6000629;23;20136;-95
2023/04/16 02:14:24;;;;;;;2.70;1.60;;;;;;;8.73;100.00;97681.31;6125011;23;20021;-94
2023/04/16 02:20:07;;;;;;;2.55;1.40;;;;;;;8.86;98.02;97663.16;6199470;23;20027;-93
2023/04/16 02:27:29;;;;;;;1.08;1.00;;;;;;;9.05;95.83;97658.88;6067459;23;20050;-94
2023/04/16 02:32:21;;;;;;;2.75;1.20;;;;;;;9.37;95.21;97707.16;6142439;23;20028;-93
2023/04/16 02:35:15;;;;;;;1.52;1.25;;;;;;;9.22;95.85;97699.81;5987864;23;20033;-93
2023/04/16 02:42:01;;;;;;;1.67;0.93;;;;;;;9.25;89.35;97699.69;5961950;23;20028;-94
2023/04/16 02:48:27;;;;;;;1.70;1.60;;;;;;;9.42;85.92;97714.94;5831563;24;20031;-92
2023/04/16 02:51:25;;;;;;;1.35;1.00;;;;;;;9.35;86.40;97727.59;5791030;24;20015;-92
2023/04/16 02:57:18;;;;;;;0.85;0.85;;;;;;;9.08;86.23;97713.59;5739732;24;20027;-93
2023/04/16 03:00:49;;;;;;;;;;;;;;;;;;;;;
2023/04/16 03:03:23;;;;;;;1.67;0.90;;;;;;;9.03;86.61;97731.47;5777988;24;20019;-94
2023/04/16 03:22:05;;;;;;;1.00;1.00;;;;;;;8.74;82.73;97716.63;6085998;22;3012703;-92
2023/04/16 03:24:31;;;;;;;1.00;0.85;;;;;;;8.81;79.60;97713.69;6146053;23;20022;-94
2023/04/16 03:27:07;;;;;;;1.42;1.02;;;;;;;8.53;79.94;97666.16;6146731;23;20022;-91
2023/04/16 03:30:36;;;;;;;0.90;0.90;;;;;;;8.78;79.50;97716.47;6152158;23;20091;-94
2023/04/16 03:33:05;;;;;;;4.03;1.27;;;;;;;8.61;79.86;97680.00;6126748;23;20021;-93
2023/04/16 03:35:45;;;;;;;1.07;1.00;;;;;;;8.70;81.62;97715.88;6148412;23;20022;-92
2023/04/16 03:42:01;;;;;;;1.10;1.00;;;;;;;8.36;82.12;97677.31;6058304;23;20019;-92
2023/04/16 03:44:44;;;;;;;1.25;1.20;;;;;;;8.42;81.14;97711.56;6030209;23;20054;-95
2023/04/16 03:47:33;;;;;;;0.90;0.90;;;;;;;8.55;81.96;97727.03;6006303;23;20023;-92
2023/04/16 03:50:18;;;;;;;0.80;0.80;;;;;;;8.23;83.13;97686.63;6008023;23;20034;-93
2023/04/16 03:53:47;;;;;;;0.82;0.82;;;;;;;8.24;84.23;97698.97;6007663;23;20039;-94
2023/04/16 03:56:09;;;;;;;0.95;0.95;;;;;;;8.36;83.98;97730.28;6001212;23;20019;-95
2023/04/16 03:59:36;;;;;;;0.80;0.80;;;;;;;8.52;81.25;97735.97;6024060;23;20019;-95
2023/04/16 04:02:34;;;;;;;0.98;0.90;;;;;;;8.32;81.89;97710.13;5953401;23;20043;-92
2023/04/16 04:08:29;;;;;;;1.08;0.98;;;;;;;8.45;83.24;97752.13;5922343;24;20460;-93
2023/04/16 04:11:18;;;;;;;0.85;0.85;;;;;;;8.47;83.25;97766.19;5926074;24;20021;-94
2023/04/16 04:14:40;;;;;;;0.90;0.90;;;;;;;8.25;83.24;97732.44;5926295;24;20021;-93
2023/04/16 04:17:29;;;;;;;2.45;0.93;;;;;;;8.14;85.61;97732.81;5940059;23;20012;-95
2023/04/16 04:20:34;;;;;;;0.90;0.90;;;;;;;8.19;87.44;97756.50;6079403;23;20027;-94
2023/04/16 04:23:59;;;;;;;1.90;1.10;;;;;;;7.96;87.42;97731.66;5994244;23;20133;-93
2023/04/16 04:26:43;;;;;;;0.80;0.80;;;;;;;8.00;87.18;97737.69;5894111;24;20025;-94
2023/04/16 04:29:52;;;;;;;2.20;0.82;;;;;;;7.98;89.76;97748.38;5965543;24;20024;-94
2023/04/16 04:36:04;;;;;;;1.00;0.90;;;;;;;7.94;89.10;97778.50;5956400;24;20084;-94
2023/04/16 04:39:13;;;;;;;0.95;0.95;;;;;;;8.03;91.53;97791.44;5988285;24;20056;-94
2023/04/16 04:42:31;;;;;;;0.70;0.70;;;;;;;8.00;89.48;97799.47;5975137;24;20031;-94
2023/04/16 04:45:25;;;;;;;0.85;0.85;;;;;;;8.09;88.92;97805.38;6001678;23;20058;-94
2023/04/16 04:49:06;;;;;;;;;;;;;;;;;;;;;
2023/04/16 04:52:41;;;;;;;;;;;;;;;;;;;;;
2023/04/16 05:06:46;;;;;;;0.95;0.95;;;;;;;8.42;86.73;97817.53;6003448;23;20008;-95
2023/04/16 05:09:39;;;;;;;0.70;0.70;;;;;;;8.18;87.54;97776.81;6003078;23;20059;-93
2023/04/16 05:12:44;;;;;;;0.80;0.80;;;;;;;8.51;86.17;97823.44;6001563;23;20440;-94
2023/04/16 05:16:11;;;;;;;0.75;0.73;;;;;;;8.35;85.84;97797.44;6026013;23;20023;-93
2023/04/16 05:18:57;;;;;;;0.90;0.90;;;;;;;8.63;84.90;97836.25;5892998;24;20021;-94
2023/04/16 05:22:17;;;;;;;0.80;0.80;;;;;;;8.75;85.69;97835.84;5893336;24;20025;-95
2023/04/16 05:26:06;;;;;;;0.80;0.70;;;;;;;8.52;84.69;97793.38;5894324;24;20013;-94
2023/04/16 05:28:51;;;;;;;0.80;0.80;;;;;;;8.86;84.05;97842.56;5893163;24;20025;-93
2023/04/16 05:31:50;;;;;;;1.27;0.82;;;;;;;8.87;83.97;97841.63;5909944;24;20058;-95
2023/04/16 05:38:14;;;;;;;0.80;0.80;;;;;;;9.09;84.50;97849.72;5882894;24;20021;-95
2023/04/16 05:41:42;;;;;;;;;;;;;;;;;;;;;
2023/04/16 05:45:27;;;;;;;0.80;0.80;;;;;;;9.26;83.39;97849.97;5738658;25;20032;-94
2023/04/16 05:48:36;;;;;;;0.70;0.70;;;;;;;9.38;82.49;97860.13;5731552;25;20099;-94
2023/04/16 05:51:44;;;;;;;0.70;0.70;;;;;;;9.50;81.81;97852.63;5737533;25;20056;-93
2023/04/16 05:55:06;;;;;;;0.65;0.65;;;;;;;9.52;82.31;97851.66;5733580;25;20029;-95
2023/04/16 05:58:03;;;;;;;0.80;0.80;;;;;;;9.64;81.93;97855.63;5783973;24;20056;-93
2023/04/16 06:01:08;;;;;;;0.80;0.80;;;;;;;9.74;82.85;97858.81;5799446;24;20031;-93
2023/04/16 06:04:17;;;;;;;1.02;0.90;;;;;;;9.54;83.41;97825.94;5785861;24;20516;-94
2023/04/16 06:07:23;;;;;;;2.05;0.98;;;;;;;9.90;82.06;97864.41;5808236;24;20034;-93
2023/04/16 06:10:01;;;;;;;0.80;0.80;;;;;;;9.61;82.06;97823.91;5787323;24;20223;-95
2023/04/16 06:12:40;;;;;;;0.50;0.50;;;;;;;9.56;82.34;97809.94;5784901;24;20037;-94
2023/04/16 06:15:56;;;;;;;0.60;0.60;;;;;;;9.69;81.28;97815.63;6068614;23;20109;-93
2023/04/16 06:18:42;;;;;;;1.40;0.80;;;;;;;10.02;80.52;97845.34;6059962;23;20019;-95
2023/04/16 06:21:20;;;;;;;0.88;0.88;;;;;;;10.12;80.62;97867.91;6062247;23;20461;-92
2023/04/16 06:23:48;;;;;;;1.17;0.70;;;;;;;9.89;82.85;97823.69;6060577;23;20055;-95
2023/04/16 06:26:42;;;;;;;1.10;0.80;;;;;;;10.23;81.71;97859.53;6013066;23;20022;-92
2023/04/16 06:29:53;;;;;;;0.70;0.70;;;;;;;10.19;81.29;97868.53;6058703;23;20071;-95
2023/04/16 06:32:54;;;;;;;1.05;0.73;;;;;;;10.19;82.99;97866.78;6058283;23;20088;-94
2023/04/16 06:36:36;;;;;;;;;;;;;;;;;;;;;
2023/04/16 06:39:26;;;;;;;1.30;0.77;;;;;;;10.19;82.57;97890.69;5942469;24;20017;-93
2023/04/16 06:42:30;;;;;;;0.77;0.75;;;;;;;10.02;82.60;97855.97;5936385;24;20077;-93
2023/04/16 06:45:40;;;;;;;0.90;0.90;;;;;;;9.76;83.81;97841.91;5934880;24;20032;-94
2023/04/16 06:48:32;;;;;;;1.80;0.90;;;;;;;9.97;84.61;97874.69;5918834;24;20017;-95
2023/04/16 06:55:11;;;;;;;;;;;;;;;;;;;;;
2023/04/16 06:58:29;;;;;;;;;;;;;;;;;;;;;
2023/04/16 07:01:44;;;;;;;1.20;0.95;;;;;;;9.85;86.08;97844.19;5861259;24;20027;-94
2023/04/16 07:04:36;;;;;;;;;;;;;;;9.90;87.62;97885.63;5864224;24;20049;-94
2023/04/16 07:08:00;;;;;;;1.27;0.90;;;;;;;9.93;86.79;97890.81;5839164;24;20338;-94
2023/04/16 07:11:17;;;;;;;1.45;1.20;;;;;;;9.81;86.91;97889.50;5840267;24;20027;-94
2023/04/16 07:18:16;;;;;;;1.58;1.20;;;;;;;9.56;86.98;97850.59;5927936;23;20060;-95
2023/04/16 07:21:42;;;;;;;1.50;1.20;;;;;;;10.12;86.56;97896.28;6005492;23;20051;-93
2023/04/16 07:32:59;;;;;;;2.38;1.50;;;;;;;10.83;84.73;97895.19;5849459;24;20022;-94
2023/04/16 07:35:53;;;;;;;2.85;1.58;;;;;;;10.98;83.07;97882.16;5888595;24;20120;-93
2023/04/16 07:39:04;;;;;;;1.40;1.30;;;;;;;11.05;79.23;97883.63;5891279;24;20068;-95
2023/04/16 07:42:31;;;;;;;1.20;1.10;;;;;;;10.79;80.96;97851.03;5866434;24;20093;-94
2023/04/16 07:45:10;;;;;;;1.77;1.27;;;;;;;10.93;82.97;97870.84;5863811;24;20038;-94
2023/04/16 07:47:38;;;;;;;2.25;1.30;;;;;;;11.17;80.77;97909.72;5866246;24;20022;-93
2023/04/16 07:53:53;;;;;;;0.85;0.85;;;;;;;11.26;80.76;97919.94;5906157;23;20040;-94
2023/04/16 07:56:36;;;;;;;1.67;1.33;;;;;;;11.22;81.15;97931.66;6008677;23;20020;-94
2023/04/16 07:59:18;;;;;;;3.05;1.63;;;;;;;11.44;79.49;97930.72;6008605;23;20020;-92
2023/04/16 08:02:00;;;;;;;2.83;1.50;;;;;;;11.63;80.06;97928.13;6080330;23;20018;-94
2023/04/16 08:05:11;;;;;;;2.90;1.20;;;;;;;11.05;80.32;97924.41;6116818;23;20025;-96
2023/04/16 08:08:01;;;;;;;1.70;1.30;;;;;;;11.57;78.58;97934.56;6117016;23;20041;-94
2023/04/16 08:10:54;;;;;;;1.20;1.10;;;;;;;11.51;79.92;97882.47;6113246;23;20049;-94
2023/04/16 08:13:45;;;;;;;1.30;1.20;;;;;;;11.99;78.21;97941.59;6116100;23;20018;-91
2023/04/16 08:16:54;;;;;;;1.58;1.20;;;;;;;11.90;73.57;97910.03;6113575;23;20022;-92
2023/04/16 08:19:33;;;;;;;1.30;1.20;;;;;;;11.96;76.58;97957.72;6101304;23;20083;-93
2023/04/16 08:22:28;;;;;;;2.55;1.50;;;;;;;11.70;76.28;97919.78;6118730;23;20058;-93
2023/04/16 08:25:07;;;;;;;2.05;1.27;;;;;;;11.72;76.36;97943.69;6116781;23;20492;-92
2023/04/16 08:28:06;;;;;;;1.30;1.20;;;;;;;11.63;76.90;97921.00;6116324;23;20026;-94
2023/04/16 08:30:57;;;;;;;1.08;1.08;;;;;;;11.98;76.44;97976.31;6117552;23;20029;-94
2023/04/16 08:34:10;;;;;;;0.93;0.93;;;;;;;11.86;75.39;97930.63;6116800;23;20026;-93
2023/04/16 08:37:07;;;;;;;0.90;0.90;;;;;;;11.87;73.46;97958.09;5951287;24;20072;-95
2023/04/16 08:40:01;;;;;;;0.63;0.63;;;;;;;11.41;73.84;97976.13;5947538;24;20096;-91
2023/04/16 08:43:24;;;;;;;0.60;0.60;;;;;;;11.36;75.22;97978.09;5948713;24;20036;-91
2023/04/16 08:46:25;;;;;;;1.42;1.02;;;;;;;11.54;75.64;97974.66;5940058;24;20054;-94
2023/04/16 08:49:22;;;;;;;1.42;0.75;;;;;;;11.02;75.60;97958.25;5953606;24;20024;-93
2023/04/16 08:55:45;;;;;;;1.02;0.90;;;;;;;11.21;75.50;98003.56;5910708;24;20024;-93
2023/04/16 08:58:43;;;;;;;0.70;0.70;;;;;;;11.47;75.14;97998.03;5970622;24;20040;-91
2023/04/16 09:01:47;;;;;;;3.03;0.98;;;;;;;11.59;75.56;97998.41;5946264;24;20029;-94
2023/04/16 09:04:51;;;;;;;1.00;0.90;;;;;;;11.80;75.11;97967.31;5946951;24;20024;-94
2023/04/16 09:07:38;;;;;;;2.78;1.30;;;;;;;11.98;74.89;97986.97;6084510;23;20018;-93
2023/04/16 09:10:58;;;;;;;;;;;;;;;;;;;;;
2023/04/16 09:14:08;;;;;;;1.83;1.50;;;;;;;12.17;73.11;97955.00;6084551;23;20079;-93
2023/04/16 09:16:59;;;;;;;1.55;1.13;;;;;;;12.57;70.79;97991.31;6060206;23;20023;-93
2023/04/16 09:20:03;;;;;;;2.28;1.52;;;;;;;12.32;69.96;97978.28;6062526;23;20022;-94
2023/04/16 09:22:56;;;;;;;;;;;;;;;;;;;;;
2023/04/16 09:26:24;;;;;;;1.40;1.10;;;;;;;12.10;71.09;97999.72;6074556;23;20022;-94
2023/04/16 09:29:03;;;;;;;0.60;0.60;;;;;;;12.01;71.73;98019.66;6054282;23;20137;-90
2023/04/16 09:35:03;;;;;;;0.50;0.50;;;;;;;11.88;71.78;98000.72;6059986;23;20019;-92
2023/04/16 09:37:52;;;;;;;1.70;1.60;;;;;;;11.91;72.52;97986.38;6061039;23;20023;-93
2023/04/16 09:40:38;;;;;;;;;;;;;;;12.15;72.11;98000.38;6056562;23;20561;-93
2023/04/16 09:43:26;;;;;;;1.20;1.10;;;;;;;12.53;69.39;97968.38;6017526;23;19925;-94
2023/04/16 09:45:55;;;;;;;1.45;0.80;;;;;;;12.06;72.63;97977.69;6054832;23;20191;-94
2023/04/16 09:48:33;;;;;;;2.22;1.90;;;;;;;12.52;69.29;97962.19;6052276;23;20023;-94
2023/04/16 09:51:00;;;;;;;3.50;2.30;;;;;;;12.73;68.99;97980.78;6055722;23;20065;-93
2023/04/16 09:53:40;;;;;;;3.97;2.70;;;;;;;12.84;68.75;97989.13;6075925;23;20018;-91
2023/04/16 09:56:25;;;;;;;4.95;2.50;;;;;;;12.78;68.32;98023.25;6109163;23;20023;-93
2023/04/16 09:59:09;;;;;;;1.77;1.30;;;;;;;12.51;68.89;98028.94;6108832;23;20030;-94
2023/04/16 10:04:56;;;;;;;2.15;0.77;;;;;;;12.69;66.52;97990.72;6075682;23;20022;-93
2023/04/16 10:07:34;;;;;;;1.35;0.98;;;;;;;12.72;67.62;98035.06;6109927;23;20018;-92
2023/04/16 10:10:43;;;;;;;1.10;1.02;;;;;;;13.09;68.69;98035.97;6113256;23;20029;-93
2023/04/16 10:13:29;;;;;;;1.80;1.40;;;;;;;13.13;68.65;98026.88;6111929;23;20065;-92
2023/04/16 10:16:00;;;;;;;1.67;1.10;;;;;;;13.12;66.19;98003.78;6110791;23;20023;-93
2023/04/16 10:18:29;;;;;;;2.90;1.65;;;;;;;13.22;65.48;97996.16;6112823;23;20042;-93
2023/04/16 10:21:00;;;;;;;3.97;1.63;;;;;;;13.59;66.88;98035.25;6115186;23;20018;-93
2023/04/16 10:23:43;;;;;;;2.00;1.30;;;;;;;13.46;65.42;97994.09;6136744;23;20368;-93
2023/04/16 10:26:12;;;;;;;2.70;1.40;;;;;;;13.29;65.23;97998.50;6115451;23;20027;-93
2023/04/16 10:29:22;;;;;;;1.58;1.30;;;;;;;13.71;65.84;98048.00;6113658;23;20030;-93
2023/04/16 10:32:06;;;;;;;1.80;1.33;;;;;;;13.50;65.89;98009.03;6088433;23;20074;-92
2023/04/16 10:34:55;;;;;;;2.40;1.30;;;;;;;12.86;69.13;98008.59;6108184;23;20059;-93
2023/04/16 10:37:34;;;;;;;3.08;2.00;;;;;;;13.02;66.61;98048.75;6107968;23;20018;-92
2023/04/16 10:40:25;;;;;;;2.38;1.35;;;;;;;13.06;67.58;98054.81;6110581;23;20018;-93
2023/04/16 10:42:58;;;;;;;7.05;3.40;;;;;;;12.58;66.70;98013.50;6111683;23;20022;-93
2023/04/16 10:45:36;;;;;;;6.13;3.42;;;;;;;12.15;69.77;98027.03;6111151;23;20068;-95
2023/04/16 10:48:08;;;;;;;2.03;1.20;;;;;;;12.56;68.33;98058.06;6112576;23;20015;-93
2023/04/16 10:50:53;;;;;;;2.65;1.63;;;;;;;12.68;68.88;98058.34;6110037;23;20524;-93
2023/04/16 10:53:27;;;;;;;2.00;1.48;;;;;;;12.42;71.69;98050.69;6111031;23;20036;-92
2023/04/16 10:56:15;;;;;;;2.28;1.30;;;;;;;12.74;68.51;98071.41;6110751;23;20437;-93
2023/04/16 10:58:43;;;;;;;3.50;1.10;;;;;;;12.46;69.21;98029.16;6105412;23;20451;-93
2023/04/16 11:01:13;;;;;;;2.33;1.30;;;;;;;11.93;71.17;98019.16;6107709;23;20022;-95
2023/04/16 11:03:46;;;;;;;1.75;1.10;;;;;;;11.81;71.29;98047.16;6107071;23;20050;-93
2023/04/16 11:06:23;;;;;;;2.90;1.10;;;;;;;12.12;70.45;98054.69;6106689;23;20053;-94
2023/04/16 11:08:53;;;;;;;1.80;1.15;;;;;;;11.86;69.45;98030.94;6109000;23;20030;-93
2023/04/16 11:11:20;;;;;;;2.40;1.33;;;;;;;12.02;72.08;98048.03;6108939;23;20030;-95
2023/04/16 11:14:02;;;;;;;2.45;1.40;;;;;;;12.51;70.82;98061.81;6107991;23;20050;-94
2023/04/16 11:16:39;;;;;;;2.50;1.52;;;;;;;12.48;68.51;98032.59;6109322;23;20105;-93
2023/04/16 11:19:18;;;;;;;1.30;1.10;;;;;;;12.37;69.45;98034.06;6106993;23;20023;-94
2023/04/16 11:21:47;;;;;;;;;;;;;;;12.90;67.92;98068.00;6109441;23;20438;-93
2023/04/16 11:24:20;;;;;;;2.95;1.30;;;;;;;12.89;68.76;98083.16;6106503;23;20284;-94
2023/04/16 11:26:50;;;;;;;2.55;1.13;;;;;;;12.79;66.67;98046.31;6105021;23;20026;-94
2023/04/16 11:29:21;;;;;;;2.90;1.30;;;;;;;13.24;65.63;98071.72;6108641;23;20082;-94
2023/04/16 11:31:50;;;;;;;2.35;1.20;;;;;;;13.18;66.29;98066.66;6110322;23;20023;-94
2023/04/16 11:34:33;;;;;;;2.38;1.00;;;;;;;13.15;64.82;98084.56;6111213;23;20037;-94
2023/04/16 11:37:06;;;;;;;5.07;1.30;;;;;;;12.91;65.50;98041.25;6111878;23;20081;-93
2023/04/16 11:39:58;;;;;;;;;;;;;;;;;;;;;
2023/04/16 11:42:39;;;;;;;3.83;1.88;;;;;;;13.55;62.67;98060.41;6112049;23;20026;-94
2023/04/16 11:45:18;;;;;;;2.28;1.08;;;;;;;12.81;64.20;98057.78;6110365;23;20029;-95
2023/04/16 11:48:01;;;;;;;3.03;1.63;;;;;;;12.70;66.58;98055.59;6112600;23;20018;-95
2023/04/16 11:51:42;;;;;;;2.15;1.20;;;;;;;12.73;66.89;98075.00;6023877;23;20052;-93
2023/04/16 11:54:35;;;;;;;2.65;1.20;;;;;;;13.37;64.90;98082.69;6001543;23;20056;-92
2023/04/16 11:57:05;;;;;;;1.75;1.10;;;;;;;13.55;62.37;98084.44;6000867;23;20027;-94
2023/04/16 11:59:51;;;;;;;2.35;1.05;;;;;;;13.46;61.86;98047.50;6027349;23;20407;-95
2023/04/16 12:02:33;;;;;;;4.70;1.30;;;;;;;13.50;64.00;98036.59;6099867;23;20022;-93
2023/04/16 12:04:59;;;;;;;2.97;1.20;;;;;;;13.20;64.24;98033.63;6109008;23;20034;-95
2023/04/16 12:07:32;;;;;;;1.80;1.05;;;;;;;13.54;64.47;98078.22;6106832;23;20018;-95
2023/04/16 12:10:06;;;;;;;2.15;1.30;;;;;;;13.60;62.51;98033.44;6109156;23;20018;-93
2023/04/16 12:12:40;;;;;;;1.30;1.00;;;;;;;13.84;62.29;98084.78;6111312;23;20023;-94
2023/04/16 12:15:13;;;;;;;2.47;1.30;;;;;;;13.88;63.07;98089.00;6110977;23;20022;-94
2023/04/16 12:17:45;;;;;;;4.18;1.20;;;;;;;13.32;63.12;98088.25;6113709;23;20022;-94
2023/04/16 12:20:18;;;;;;;2.15;1.10;;;;;;;13.24;62.02;98055.69;6111630;23;20018;-94
2023/04/16 12:22:54;;;;;;;1.73;0.98;;;;;;;13.41;61.96;98074.44;6110684;23;20026;-95
2023/04/16 12:25:30;;;;;;;1.33;1.17;;;;;;;13.82;62.02;98052.78;6106934;23;20185;-95
2023/04/16 12:28:00;;;;;;;1.20;1.00;;;;;;;13.70;61.34;98069.44;6105520;23;20022;-94
2023/04/16 12:30:30;;;;;;;2.67;1.10;;;;;;;14.07;59.75;98078.22;6107544;23;20018;-93
2023/04/16 12:33:35;;;;;;;2.25;1.10;;;;;;;13.96;59.75;98079.66;6113886;23;20023;-93
2023/04/16 12:36:23;;;;;;;1.52;1.13;;;;;;;13.50;62.22;98091.81;6113723;23;20459;-95
2023/04/16 12:39:11;;;;;;;11.90;1.35;;;;;;;13.09;61.75;98033.28;6109358;23;20318;-94
2023/04/16 12:41:42;;;;;;;4.05;1.30;;;;;;;13.37;61.32;98061.34;6110929;23;20449;-93
2023/04/16 12:44:28;;;;;;;2.15;1.42;;;;;;;13.49;61.20;98032.22;6108165;23;20029;-95
2023/04/16 12:47:03;;;;;;;2.47;1.80;;;;;;;13.58;60.41;98086.97;6112014;23;20062;-92
2023/04/16 12:49:31;;;;;;;2.42;1.02;;;;;;;13.10;61.63;98089.28;6109514;23;20113;-91
2023/04/16 12:52:20;;;;;;;3.67;1.10;;;;;;;12.77;62.70;98069.53;6108964;23;20077;-94
2023/04/16 12:55:00;;;;;;;2.55;1.30;;;;;;;12.80;62.19;98064.91;6107119;23;20042;-93
2023/04/16 12:57:47;;;;;;;1.52;0.93;;;;;;;12.65;63.04;98089.66;6107047;23;20027;-92
2023/04/16 13:00:29;;;;;;;1.63;1.10;;;;;;;13.15;62.34;98102.41;6109796;23;20046;-93
2023/04/16 13:02:57;;;;;;;1.73;1.30;;;;;;;12.83;61.56;98102.13;6111406;23;20022;-90
2023/04/16 13:05:41;;;;;;;2.47;1.35;;;;;;;12.34;63.38;98061.72;6109107;23;20022;-93
2023/04/16 13:08:17;;;;;;;3.95;1.45;;;;;;;13.05;61.53;98083.28;6104751;23;20109;-93
2023/04/16 13:10:54;;;;;;;1.98;1.10;;;;;;;12.50;61.17;98068.06;6109643;23;20029;-95
2023/04/16 13:13:35;;;;;;;2.53;1.17;;;;;;;12.08;61.89;98074.41;6109201;23;20023;-93
2023/04/16 13:16:05;;;;;;;2.47;1.55;;;;;;;12.41;62.74;98102.31;6108884;23;20023;-93
2023/04/16 13:18:36;;;;;;;2.63;1.35;;;;;;;12.52;61.80;98070.69;6109733;23;20022;-94
2023/04/16 13:21:10;;;;;;;1.77;1.30;;;;;;;13.08;61.71;98099.16;6107479;23;20023;-94
2023/04/16 13:23:46;;;;;;;1.63;1.40;;;;;;;13.11;60.35;98047.44;6109336;23;20445;-94
2023/04/16 13:26:18;;;;;;;1.70;1.50;;;;;;;13.44;59.59;98046.72;6108511;23;20099;-92
2023/04/16 13:28:46;;;;;;;4.35;1.70;;;;;;;13.34;59.74;98073.03;6109231;23;20021;-93
2023/04/16 13:31:14;;;;;;;4.25;1.52;;;;;;;13.16;60.94;98085.44;6109293;23;20162;-92
2023/04/16 13:33:43;;;;;;;2.95;1.60;;;;;;;13.21;59.73;98045.19;6109940;23;20022;-93
2023/04/16 13:36:15;;;;;;;3.30;1.80;;;;;;;13.40;59.15;98091.41;6106952;23;20018;-92
2023/04/16 13:39:10;;;;;;;2.25;1.52;;;;;;;13.34;59.46;98095.25;6108626;23;20021;-93
2023/04/16 13:41:44;;;;;;;1.85;1.30;;;;;;;13.14;58.49;98066.84;6108079;23;20023;-93
2023/04/16 13:47:58;;;;;;;1.95;1.40;;;;;;;13.10;61.27;98109.78;6109359;23;20051;-95
2023/04/16 13:51:09;;;;;;;;;;;;;;;;;;;;;
2023/04/16 13:53:57;;;;;;;2.00;1.40;;;;;;;13.07;60.54;98059.19;6108111;23;20018;-92
2023/04/16 13:56:45;;;;;;;3.00;1.50;;;;;;;13.42;60.16;98102.03;6110587;23;20529;-93
2023/04/16 13:59:20;;;;;;;2.03;1.58;;;;;;;12.98;60.44;98067.66;6110253;23;20029;-94
2023/04/16 14:02:04;;;;;;;2.50;1.38;;;;;;;12.78;60.89;98055.25;6108800;23;20037;-94
2023/04/16 14:04:35;;;;;;;2.58;1.48;;;;;;;12.68;61.72;98082.34;6110541;23;20026;-95
2023/04/16 14:07:28;;;;;;;6.22;1.90;;;;;;;12.18;62.64;98074.00;6110787;23;20022;-94
2023/04/16 14:10:53;;;;;;;3.25;1.60;;;;;;;12.01;63.75;98061.41;6086482;23;20086;-91
2023/04/16 14:14:03;;;;;;;2.45;1.70;;;;;;;11.91;64.22;98066.31;6108886;23;20022;-94
2023/04/16 14:17:45;;;;;;;;;;;;;;;;;;;;;
2023/04/16 14:20:28;;;;;;;2.47;1.65;;;;;;;12.37;63.34;98095.38;6095739;23;20018;-94
2023/04/16 14:23:04;;;;;;;3.63;1.60;;;;;;;12.23;63.45;98102.19;6105721;23;20023;-93
2023/04/16 14:26:12;;;;;;;2.53;1.90;;;;;;;12.35;62.73;98110.56;6109025;23;20073;-93
2023/04/16 14:29:13;;;;;;;3.00;1.70;;;;;;;12.36;63.60;98113.19;6048166;23;20026;-94
2023/04/16 14:31:57;;;;;;;;;;;;;;;;;;;;;
2023/04/16 14:35:09;;;;;;;;;;;;;;;;;;;;;
2023/04/16 14:38:14;;;;;;;2.78;1.80;;;;;;;12.81;61.52;98057.78;6111022;23;20113;-94
2023/04/16 14:41:07;;;;;;;4.03;1.70;;;;;;;13.39;59.68;98086.16;6108231;23;20030;-94
2023/04/16 14:43:50;;;;;;;2.17;1.45;;;;;;;13.30;59.35;98069.63;6109461;23;20028;-94
2023/04/16 14:46:18;;;;;;;2.50;1.70;;;;;;;13.45;60.17;98081.38;6105961;23;20023;-95
2023/04/16 14:48:52;;;;;;;2.08;1.50;;;;;;;13.34;57.64;98063.22;6105947;23;20040;-93
2023/04/16 14:51:45;;;;;;;2.03;1.50;;;;;;;13.29;59.70;98102.63;6108357;23;20034;-94
2023/04/16 14:55:01;;;;;;;1.55;1.40;;;;;;;13.38;58.04;98087.09;6107673;23;20091;-94
2023/04/16 14:57:16;;;;;;;1.97;1.43;;;;;;;13.22;57.84;98076.25;6090566;23;20090;-94
2023/04/16 14:59:53;;;;;;;1.92;1.40;;;;;;;13.33;57.27;98101.53;6132217;23;20026;-92
2023/04/16 15:02:41;;;;;;;1.92;1.30;;;;;;;12.69;59.70;98073.44;6107767;23;20038;-95
2023/04/16 15:05:51;;;;;;;;;;;;;;;;;;;;;
2023/04/16 15:12:30;;;;;;;1.40;1.30;;;;;;;11.63;62.26;98078.09;6081492;23;20098;-94
2023/04/16 15:15:34;;;;;;;1.40;1.30;;;;;;;12.02;62.83;98081.81;6079829;23;20094;-94
2023/04/16 15:18:47;;;;;;;2.50;1.40;;;;;;;12.50;61.09;98126.75;6008959;23;20015;-95
2023/04/16 15:21:37;;;;;;;1.60;1.50;;;;;;;12.20;61.47;98096.13;6083427;23;20025;-95
2023/04/16 15:24:12;;;;;;;1.33;1.23;;;;;;;12.15;61.57;98100.81;6080490;23;20033;-91
2023/04/16 15:30:08;;;;;;;1.70;1.30;;;;;;;12.03;60.95;98092.38;6086780;23;20500;-94
2023/04/16 15:32:53;;;;;;;1.88;1.30;;;;;;;12.06;61.32;98100.28;6083487;23;20018;-92
2023/04/16 15:35:50;;;;;;;1.83;1.40;;;;;;;12.44;61.74;98135.00;6083291;23;20018;-94
2023/04/16 15:38:38;;;;;;;2.38;1.48;;;;;;;12.13;61.25;98096.41;6082455;23;20018;-94
2023/04/16 15:41:18;;;;;;;1.50;1.40;;;;;;;12.40;62.17;98120.09;6107155;23;20027;-93
2023/04/16 15:44:21;;;;;;;3.67;1.42;;;;;;;12.02;62.20;98132.44;6099062;23;20002;-94
2023/04/16 15:46:57;;;;;;;6.07;1.40;;;;;;;11.75;63.10;98153.09;6108601;23;20026;-95
2023/04/16 15:49:32;;;;;;;1.23;1.20;;;;;;;11.97;62.58;98129.09;6106821;23;20018;-95
2023/04/16 15:52:31;;;;;;;2.38;1.58;;;;;;;11.87;62.71;98156.09;6106540;23;20027;-94
2023/04/16 15:59:31;;;;;;;1.65;1.40;;;;;;;11.13;63.57;98113.00;6105244;23;20025;-95
2023/04/16 16:02:38;;;;;;;;;;;;;;;;;;;;;
2023/04/16 16:05:31;;;;;;;1.58;1.48;;;;;;;11.24;64.02;98129.41;6075646;23;20026;-95
2023/04/16 16:08:10;;;;;;;1.80;1.40;;;;;;;11.12;64.74;98134.34;6057912;23;20023;-94
2023/04/16 16:10:37;;;;;;;3.78;1.40;;;;;;;11.29;64.34;98146.03;6052288;23;20023;-95
2023/04/16 16:13:06;;;;;;;1.55;1.45;;;;;;;11.29;64.63;98156.69;6051128;23;20023;-95
2023/04/16 16:15:40;;;;;;;2.22;1.50;;;;;;;11.28;65.13;98162.97;6054704;23;20031;-94
2023/04/16 16:18:46;;;;;;;1.42;1.33;;;;;;;11.47;65.13;98172.84;6055434;23;20023;-93
2023/04/16 16:21:21;;;;;;;1.45;1.35;;;;;;;11.40;65.28;98158.06;6000148;23;20031;-94
2023/04/16 16:24:42;;;;;;;2.53;1.45;;;;;;;11.02;64.67;98116.09;5998760;23;20208;-92
2023/04/16 16:27:40;;;;;;;2.65;1.40;;;;;;;11.12;65.10;98129.88;5997972;23;20078;-92
2023/04/16 16:30:49;;;;;;;;;;;;;;;;;;;;;
2023/04/16 16:33:29;;;;;;;2.58;1.50;;;;;;;11.09;64.94;98138.00;5888387;24;20025;-94
2023/04/16 16:36:43;;;;;;;1.85;1.60;;;;;;;11.14;65.97;98148.47;5911754;24;20030;-93
2023/04/16 16:39:48;;;;;;;3.78;2.50;;;;;;;11.19;65.54;98167.75;5885453;24;20018;-93